Time;durP1;ratioP1;P1;durP2;ratioP2;P2;SDS_P1;SDS_P2;PMS_P1;PMS_P2;Temp;Humidity;BMP_temperature;BMP_pressure;BME280_temperature;BME280_humidity;BME280_pressure;Samples;Min_cycle;Max_cycle;Signal;HPM_P1;HPM_P2
2022/11/08 00:01:44;;;;;;;0.60;0.60;;;6.50;99.90;;;;;;5115026;28;20283;-76
2022/11/08 00:04:13;;;;;;;0.60;0.60;;;6.50;99.90;;;;;;5114704;28;20236;-75
2022/11/08 00:14:57;;;;;;;0.80;0.80;;;6.40;99.90;;;;;;5115160;28;20198;-76
2022/11/08 00:17:25;;;;;;;0.70;0.70;;;6.40;99.90;;;;;;5114493;28;20192;-77
2022/11/08 00:19:51;;;;;;;0.57;0.57;;;6.40;99.90;;;;;;5114719;28;20195;-76
2022/11/08 00:22:18;;;;;;;0.65;0.65;;;6.40;99.90;;;;;;5116123;28;20195;-76
2022/11/08 00:24:44;;;;;;;0.70;0.70;;;6.40;99.90;;;;;;5114726;28;20282;-77
2022/11/08 00:27:13;;;;;;;0.65;0.65;;;6.50;99.90;;;;;;5115850;28;20691;-76
2022/11/08 00:29:39;;;;;;;0.70;0.70;;;6.40;99.90;;;;;;5115811;28;20257;-76
2022/11/08 00:32:07;;;;;;;0.60;0.60;;;6.40;99.90;;;;;;5115020;28;20568;-76
2022/11/08 00:34:34;;;;;;;0.60;0.60;;;6.40;99.90;;;;;;5114083;28;20662;-76
2022/11/08 00:37:00;;;;;;;0.60;0.60;;;6.40;99.90;;;;;;5115917;28;20203;-76
2022/11/08 00:39:26;;;;;;;0.60;0.60;;;6.40;99.90;;;;;;5115287;28;20198;-76
2022/11/08 00:41:52;;;;;;;0.65;0.65;;;6.50;99.90;;;;;;5114650;28;20290;-76
2022/11/08 00:44:18;;;;;;;0.45;0.45;;;6.50;99.90;;;;;;5116600;28;20536;-77
2022/11/08 00:46:43;;;;;;;0.55;0.55;;;6.50;99.90;;;;;;5115111;28;20199;-76
2022/11/08 00:49:09;;;;;;;0.47;0.47;;;6.40;99.90;;;;;;5113965;28;20254;-76
2022/11/08 00:51:36;;;;;;;0.50;0.50;;;6.40;99.90;;;;;;5116852;28;20677;-76
2022/11/08 00:54:03;;;;;;;0.52;0.52;;;6.50;99.90;;;;;;5120172;28;20568;-76
2022/11/08 00:56:29;;;;;;;0.57;0.57;;;6.50;99.90;;;;;;5120383;28;20187;-77
2022/11/08 00:58:58;;;;;;;0.60;0.60;;;6.50;99.90;;;;;;5120291;28;20188;-76
2022/11/08 01:01:27;;;;;;;0.60;0.60;;;6.50;99.90;;;;;;5119268;28;20558;-77
2022/11/08 01:03:53;;;;;;;0.60;0.60;;;6.50;99.90;;;;;;5118705;28;20680;-77
2022/11/08 01:06:21;;;;;;;0.60;0.60;;;6.50;99.90;;;;;;5126444;27;20194;-77
2022/11/08 01:08:48;;;;;;;0.45;0.45;;;6.50;99.90;;;;;;5137989;27;20195;-76
2022/11/08 01:11:20;;;;;;;0.70;0.70;;;6.40;99.90;;;;;;5139687;27;20199;-77
2022/11/08 01:13:47;;;;;;;0.60;0.60;;;6.40;99.90;;;;;;5129813;27;20742;-77
2022/11/08 01:16:16;;;;;;;0.50;0.50;;;6.50;99.90;;;;;;5119739;28;20180;-76
2022/11/08 01:18:42;;;;;;;0.60;0.60;;;6.50;99.90;;;;;;5120122;28;20592;-76
2022/11/08 01:21:10;;;;;;;0.50;0.50;;;6.50;99.90;;;;;;5119191;28;20208;-77
2022/11/08 01:23:36;;;;;;;0.60;0.60;;;6.50;99.90;;;;;;5117346;28;20199;-76
2022/11/08 01:26:05;;;;;;;0.70;0.70;;;6.40;99.90;;;;;;5116022;28;20191;-76
2022/11/08 01:28:32;;;;;;;0.50;0.50;;;6.40;99.90;;;;;;5117993;28;20195;-76
2022/11/08 01:31:06;;;;;;;0.60;0.60;;;6.40;99.90;;;;;;5117830;28;20207;-76
2022/11/08 01:33:32;;;;;;;0.70;0.70;;;6.40;99.90;;;;;;5117253;28;20195;-76
2022/11/08 01:35:58;;;;;;;0.50;0.50;;;6.50;99.90;;;;;;5119042;28;20258;-76
2022/11/08 01:38:27;;;;;;;0.60;0.60;;;6.40;99.90;;;;;;5117891;28;20230;-77
2022/11/08 01:40:53;;;;;;;0.60;0.60;;;6.40;99.90;;;;;;5119157;28;20195;-76
2022/11/08 01:43:30;;;;;;;0.60;0.60;;;6.40;99.90;;;;;;5118984;28;20202;-77
2022/11/08 01:46:09;;;;;;;0.52;0.52;;;6.40;99.90;;;;;;5118001;28;20241;-76
2022/11/08 01:48:38;;;;;;;0.60;0.60;;;6.40;99.90;;;;;;5115417;28;20223;-76
2022/11/08 01:51:06;;;;;;;0.60;0.60;;;6.40;99.90;;;;;;5116862;28;20204;-76
2022/11/08 01:53:32;;;;;;;0.50;0.50;;;6.40;99.90;;;;;;5115108;28;20290;-76
2022/11/08 01:55:58;;;;;;;0.60;0.60;;;6.40;99.90;;;;;;5116320;28;20238;-75
2022/11/08 01:58:27;;;;;;;0.60;0.60;;;6.40;99.90;;;;;;5116297;28;20669;-75
2022/11/08 02:00:53;;;;;;;0.40;0.40;;;6.40;99.90;;;;;;5117145;28;20245;-76
2022/11/08 02:03:24;;;;;;;1.05;0.82;;;6.40;99.90;;;;;;5114290;28;20597;-76
2022/11/08 02:05:53;;;;;;;0.77;0.77;;;6.40;99.90;;;;;;5113974;28;20234;-76
2022/11/08 02:08:26;;;;;;;0.60;0.60;;;6.40;99.90;;;;;;5114651;28;20649;-76
2022/11/08 02:10:55;;;;;;;0.55;0.55;;;6.40;99.90;;;;;;5114194;28;20203;-75
2022/11/08 02:13:24;;;;;;;0.60;0.60;;;6.40;99.90;;;;;;5115533;28;20561;-76
2022/11/08 02:15:51;;;;;;;0.60;0.60;;;6.30;99.90;;;;;;5115487;28;20195;-76
2022/11/08 02:18:23;;;;;;;0.50;0.50;;;6.30;99.90;;;;;;5115103;28;20555;-78
2022/11/08 02:21:35;;;;;;;0.70;0.70;;;6.20;99.90;;;;;;5114277;28;20199;-77
2022/11/08 02:24:53;;;;;;;0.60;0.60;;;6.20;99.90;;;;;;5114477;28;20626;-77
2022/11/08 02:27:19;;;;;;;0.70;0.70;;;6.10;99.90;;;;;;5043520;28;20289;-77
2022/11/08 02:29:50;;;;;;;0.60;0.60;;;6.10;99.90;;;;;;5115341;28;20187;-77
2022/11/08 02:32:16;;;;;;;0.50;0.50;;;6.00;99.90;;;;;;5115384;28;20224;-77
2022/11/08 02:35:10;;;;;;;0.70;0.70;;;6.00;99.90;;;;;;5114095;28;20561;-76
2022/11/08 02:37:40;;;;;;;0.50;0.50;;;6.00;99.90;;;;;;5115522;28;20219;-78
2022/11/08 02:40:15;;;;;;;0.60;0.60;;;5.90;99.90;;;;;;5113790;28;20573;-76
2022/11/08 02:42:41;;;;;;;0.68;0.68;;;5.90;99.90;;;;;;5114574;28;20191;-77
2022/11/08 02:45:07;;;;;;;0.52;0.52;;;5.90;99.90;;;;;;5113513;28;20237;-77
2022/11/08 02:47:44;;;;;;;0.60;0.60;;;5.90;99.90;;;;;;5114742;28;20219;-77
2022/11/08 02:50:09;;;;;;;0.68;0.68;;;5.80;99.90;;;;;;5114800;28;20230;-77
2022/11/08 02:52:35;;;;;;;0.70;0.70;;;5.70;99.90;;;;;;5114695;28;20188;-77
2022/11/08 02:55:01;;;;;;;0.70;0.70;;;5.70;99.90;;;;;;5113891;28;20201;-77
2022/11/08 02:57:38;;;;;;;0.60;0.60;;;5.60;99.90;;;;;;5113282;28;20601;-77
2022/11/08 03:00:07;;;;;;;0.60;0.60;;;5.60;99.90;;;;;;5114627;28;20195;-77
2022/11/08 03:02:33;;;;;;;0.50;0.50;;;5.60;99.90;;;;;;5114055;28;20274;-77
2022/11/08 03:05:02;;;;;;;0.60;0.60;;;5.60;99.90;;;;;;5113306;28;20637;-77
2022/11/08 03:07:28;;;;;;;0.60;0.60;;;5.60;99.90;;;;;;5113423;28;20721;-77
2022/11/08 03:10:00;;;;;;;0.60;0.60;;;5.60;99.90;;;;;;5113159;28;20313;-77
2022/11/08 03:12:32;;;;;;;0.50;0.50;;;5.50;99.90;;;;;;5113216;28;20203;-79
2022/11/08 03:14:58;;;;;;;0.45;0.45;;;5.50;99.90;;;;;;5114389;28;20230;-77
2022/11/08 03:17:23;;;;;;;0.63;0.63;;;5.50;99.90;;;;;;5116472;28;20199;-77
2022/11/08 03:19:49;;;;;;;0.60;0.60;;;5.40;99.90;;;;;;5114424;28;20206;-78
2022/11/08 03:22:18;;;;;;;0.60;0.60;;;5.40;99.90;;;;;;5114093;28;20194;-77
2022/11/08 03:24:44;;;;;;;0.68;0.68;;;5.40;99.90;;;;;;5112442;28;20653;-77
2022/11/08 03:27:14;;;;;;;0.50;0.50;;;5.40;99.90;;;;;;5114465;28;20195;-78
2022/11/08 03:29:57;;;;;;;0.50;0.50;;;5.40;99.90;;;;;;5112825;28;20662;-78
2022/11/08 03:32:22;;;;;;;0.60;0.60;;;5.40;99.90;;;;;;5113668;28;20226;-78
2022/11/08 03:35:01;;;;;;;0.77;0.77;;;5.50;99.90;;;;;;5114097;28;20187;-77
2022/11/08 03:37:29;;;;;;;0.60;0.60;;;5.60;99.90;;;;;;5112401;28;20626;-77
2022/11/08 03:40:14;;;;;;;0.55;0.55;;;5.60;99.90;;;;;;5114005;28;20192;-76
2022/11/08 03:42:40;;;;;;;0.50;0.50;;;5.60;99.90;;;;;;5112716;28;20249;-77
2022/11/08 03:45:10;;;;;;;0.50;0.50;;;5.70;99.90;;;;;;5114101;28;20191;-78
2022/11/08 03:47:43;;;;;;;0.52;0.52;;;5.70;99.90;;;;;;5113208;28;20260;-77
2022/11/08 03:50:21;;;;;;;0.68;0.68;;;5.80;99.90;;;;;;5112116;28;20295;-77
2022/11/08 03:52:52;;;;;;;0.60;0.60;;;5.80;99.90;;;;;;5113078;28;20559;-76
2022/11/08 03:55:22;;;;;;;0.80;0.80;;;5.90;99.90;;;;;;5112546;28;20618;-77
2022/11/08 03:57:49;;;;;;;0.60;0.60;;;5.90;99.90;;;;;;5113859;28;20188;-77
2022/11/08 04:00:21;;;;;;;0.60;0.60;;;5.90;99.90;;;;;;5111322;28;20661;-78
2022/11/08 04:02:47;;;;;;;0.60;0.60;;;5.90;99.90;;;;;;5106256;28;20240;-77
2022/11/08 04:05:14;;;;;;;0.65;0.65;;;5.90;99.90;;;;;;5113241;28;20195;-77
2022/11/08 04:07:39;;;;;;;0.70;0.70;;;5.90;99.90;;;;;;5113688;28;20191;-78
2022/11/08 04:10:13;;;;;;;0.68;0.68;;;5.90;99.90;;;;;;5112741;28;20693;-79
2022/11/08 04:15:52;;;;;;;0.60;0.60;;;5.90;99.90;;;;;;5113914;28;20198;-77
2022/11/08 04:23:51;;;;;;;0.60;0.60;;;5.90;99.90;;;;;;5114191;28;20216;-78
2022/11/08 04:26:18;;;;;;;0.68;0.68;;;5.90;99.90;;;;;;5113495;28;20200;-77
2022/11/08 04:28:47;;;;;;;0.70;0.70;;;6.00;99.90;;;;;;5117225;28;20654;-79
2022/11/08 04:31:18;;;;;;;0.70;0.70;;;6.00;99.90;;;;;;5116334;28;20204;-77
2022/11/08 04:33:53;;;;;;;0.90;0.90;;;6.00;99.90;;;;;;5116372;28;20200;-77
2022/11/08 04:36:19;;;;;;;0.68;0.68;;;6.00;99.90;;;;;;5116059;28;20191;-77
2022/11/08 04:38:58;;;;;;;0.63;0.63;;;6.00;99.90;;;;;;5116480;28;20283;-78
2022/11/08 04:41:35;;;;;;;0.60;0.60;;;6.10;99.90;;;;;;5115828;28;20214;-78
2022/11/08 04:44:01;;;;;;;0.55;0.55;;;6.00;99.90;;;;;;5100307;28;20203;-76
2022/11/08 04:46:28;;;;;;;0.60;0.60;;;6.00;99.90;;;;;;5116063;28;20217;-77
2022/11/08 04:48:58;;;;;;;0.60;0.60;;;6.00;99.90;;;;;;5116435;28;20242;-77
2022/11/08 04:51:27;;;;;;;0.70;0.70;;;6.10;99.90;;;;;;5115612;28;20219;-77
2022/11/08 04:54:06;;;;;;;0.70;0.70;;;6.00;99.90;;;;;;5117653;28;20222;-78
2022/11/08 04:56:32;;;;;;;0.63;0.63;;;6.10;99.90;;;;;;5117526;28;20531;-77
2022/11/08 04:58:59;;;;;;;0.60;0.60;;;6.00;99.90;;;;;;5116637;28;20205;-77
2022/11/08 05:01:37;;;;;;;0.60;0.60;;;6.00;99.90;;;;;;5116441;28;20218;-77
2022/11/08 05:04:09;;;;;;;0.55;0.55;;;6.00;99.90;;;;;;5116859;28;20558;-77
2022/11/08 05:06:35;;;;;;;0.60;0.60;;;6.00;99.90;;;;;;5116585;28;20263;-78
2022/11/08 05:09:04;;;;;;;0.60;0.60;;;6.00;99.90;;;;;;5117533;28;20215;-77
2022/11/08 05:11:30;;;;;;;0.60;0.60;;;6.10;99.90;;;;;;5116112;28;20247;-76
2022/11/08 05:13:56;;;;;;;0.70;0.70;;;6.10;99.90;;;;;;5115969;28;20559;-78
2022/11/08 05:16:28;;;;;;;0.70;0.70;;;6.10;99.90;;;;;;5115924;28;20229;-77
2022/11/08 05:18:57;;;;;;;0.60;0.60;;;6.10;99.90;;;;;;5116230;28;20203;-77
2022/11/08 05:24:13;;;;;;;0.60;0.60;;;6.00;99.90;;;;;;5116565;28;20207;-79
2022/11/08 05:26:41;;;;;;;0.60;0.60;;;5.90;99.90;;;;;;5115958;28;20217;-79
2022/11/08 05:29:07;;;;;;;0.70;0.70;;;5.90;99.90;;;;;;5114538;28;20200;-77
2022/11/08 05:31:33;;;;;;;0.70;0.70;;;5.90;99.90;;;;;;5115071;28;20251;-78
2022/11/08 05:33:59;;;;;;;0.65;0.65;;;5.90;99.90;;;;;;5115782;28;20203;-78
2022/11/08 05:36:26;;;;;;;0.40;0.40;;;5.80;99.90;;;;;;5116515;28;20195;-78
2022/11/08 05:38:52;;;;;;;0.60;0.60;;;5.80;99.90;;;;;;5117161;28;20194;-79
2022/11/08 05:41:21;;;;;;;1.77;1.40;;;5.80;99.90;;;;;;5117998;28;20231;-78
2022/11/08 05:43:49;;;;;;;0.60;0.60;;;5.80;99.90;;;;;;5117027;28;20192;-78
2022/11/08 05:46:17;;;;;;;0.60;0.60;;;5.80;99.90;;;;;;5117156;28;20196;-79
2022/11/08 05:48:43;;;;;;;0.50;0.50;;;5.90;99.90;;;;;;5115126;28;20227;-79
2022/11/08 05:51:13;;;;;;;0.50;0.50;;;5.90;99.90;;;;;;5116958;28;20200;-78
2022/11/08 05:53:39;;;;;;;0.70;0.70;;;5.90;99.90;;;;;;5116986;28;20805;-79
2022/11/08 05:56:17;;;;;;;0.60;0.60;;;5.90;99.90;;;;;;5116173;28;20199;-78
2022/11/08 05:58:43;;;;;;;0.60;0.60;;;5.90;99.90;;;;;;5118467;28;20244;-78
2022/11/08 06:01:12;;;;;;;0.70;0.70;;;5.90;99.90;;;;;;5118563;28;20217;-77
2022/11/08 06:03:38;;;;;;;0.50;0.50;;;5.90;99.90;;;;;;5116460;28;20196;-77
2022/11/08 06:06:07;;;;;;;0.50;0.50;;;5.90;99.90;;;;;;5114303;28;20307;-78
2022/11/08 06:08:43;;;;;;;0.50;0.50;;;5.90;99.90;;;;;;5114431;28;20550;-77
2022/11/08 06:11:14;;;;;;;0.60;0.60;;;5.90;99.90;;;;;;5114583;28;20214;-77
2022/11/08 06:13:40;;;;;;;2.05;1.45;;;5.90;99.90;;;;;;5114229;28;20203;-79
2022/11/08 06:16:11;;;;;;;0.50;0.50;;;5.90;99.90;;;;;;5115772;28;20179;-78
2022/11/08 06:18:38;;;;;;;0.63;0.63;;;5.80;99.90;;;;;;5115994;28;20554;-77
2022/11/08 06:21:11;;;;;;;0.50;0.50;;;5.80;99.90;;;;;;5115049;28;20195;-77
2022/11/08 06:23:41;;;;;;;0.60;0.60;;;5.70;99.90;;;;;;5113918;28;20722;-80
2022/11/08 06:26:08;;;;;;;3.03;1.80;;;5.70;99.90;;;;;;5089452;28;20207;-76
2022/11/08 06:28:37;;;;;;;0.60;0.60;;;5.70;99.90;;;;;;5094802;28;20559;-76
2022/11/08 06:31:06;;;;;;;0.60;0.60;;;5.70;99.90;;;;;;5094288;28;20207;-78
2022/11/08 06:33:35;;;;;;;0.68;0.68;;;5.80;99.90;;;;;;5094422;28;20189;-76
2022/11/08 06:36:01;;;;;;;0.60;0.60;;;5.80;99.90;;;;;;5094441;28;20557;-76
2022/11/08 06:38:27;;;;;;;0.70;0.70;;;5.80;99.90;;;;;;5094067;28;20275;-76
2022/11/08 06:40:53;;;;;;;0.60;0.60;;;5.80;99.90;;;;;;5094240;28;20196;-77
2022/11/08 06:43:19;;;;;;;0.60;0.60;;;5.80;99.90;;;;;;5094211;28;20200;-78
2022/11/08 06:45:48;;;;;;;0.65;0.65;;;5.80;99.90;;;;;;5097659;28;20214;-77
2022/11/08 06:48:13;;;;;;;0.52;0.52;;;5.90;99.90;;;;;;5094096;28;20192;-78
2022/11/08 06:51:19;;;;;;;0.50;0.50;;;5.90;99.90;;;;;;5097910;28;20302;-78
2022/11/08 06:54:25;;;;;;;;;;;;;;;;;;;;;
2022/11/08 06:56:54;;;;;;;0.50;0.50;;;5.90;99.90;;;;;;5072806;28;20204;-79
2022/11/08 06:59:27;;;;;;;0.52;0.52;;;5.80;99.90;;;;;;5073257;28;20574;-79
2022/11/08 07:02:01;;;;;;;0.50;0.50;;;5.80;99.90;;;;;;5058288;28;20695;-78
2022/11/08 07:04:51;;;;;;;0.47;0.47;;;5.90;99.90;;;;;;5082958;28;20722;-79
2022/11/08 07:07:30;;;;;;;0.65;0.65;;;5.90;99.90;;;;;;5114167;28;20196;-78
2022/11/08 07:10:47;;;;;;;0.60;0.60;;;5.90;99.90;;;;;;5115641;28;20275;-79
2022/11/08 07:20:21;;;;;;;0.60;0.60;;;6.00;99.90;;;;;;4975659;28;20265;-78
2022/11/08 07:22:57;;;;;;;0.50;0.50;;;6.00;99.90;;;;;;4975431;28;20303;-78
2022/11/08 07:25:29;;;;;;;0.68;0.68;;;6.00;99.90;;;;;;5093608;28;20243;-78
2022/11/08 07:28:00;;;;;;;0.50;0.50;;;6.00;99.90;;;;;;5115537;28;20199;-79
2022/11/08 07:30:26;;;;;;;0.60;0.60;;;6.00;99.90;;;;;;5114408;28;20200;-79
2022/11/08 07:32:52;;;;;;;0.70;0.70;;;6.10;99.90;;;;;;5114979;28;20192;-78
2022/11/08 07:35:18;;;;;;;0.50;0.50;;;6.10;99.90;;;;;;5113129;28;20677;-79
2022/11/08 07:37:43;;;;;;;0.52;0.52;;;6.10;99.90;;;;;;5116210;28;20226;-79
2022/11/08 07:40:10;;;;;;;1.00;0.95;;;6.10;99.90;;;;;;5116294;28;20187;-79
2022/11/08 07:42:39;;;;;;;0.60;0.60;;;6.10;99.90;;;;;;5114894;28;20206;-79
2022/11/08 07:45:09;;;;;;;0.60;0.60;;;6.10;99.90;;;;;;5112949;28;20195;-78
2022/11/08 07:47:41;;;;;;;0.60;0.60;;;6.10;99.90;;;;;;5113706;28;20231;-78
2022/11/08 07:50:16;;;;;;;0.68;0.68;;;6.10;99.90;;;;;;5111631;28;20594;-78
2022/11/08 07:52:42;;;;;;;0.60;0.60;;;6.10;99.90;;;;;;5116079;28;20661;-78
2022/11/08 07:55:18;;;;;;;0.63;0.63;;;6.00;99.90;;;;;;5115840;28;20198;-77
2022/11/08 07:57:45;;;;;;;0.90;0.90;;;6.00;99.90;;;;;;5098749;28;20207;-77
2022/11/08 08:00:11;;;;;;;0.50;0.50;;;6.00;99.90;;;;;;5098361;28;20240;-78
2022/11/08 08:02:36;;;;;;;0.70;0.70;;;5.90;99.90;;;;;;5117643;28;20202;-78
2022/11/08 08:05:02;;;;;;;0.60;0.60;;;5.90;99.90;;;;;;5102236;28;20670;-78
2022/11/08 08:07:28;;;;;;;0.50;0.50;;;5.90;99.90;;;;;;5102652;28;20195;-78
2022/11/08 08:09:56;;;;;;;0.60;0.60;;;6.00;99.90;;;;;;5103072;28;20195;-78
2022/11/08 08:12:25;;;;;;;0.60;0.60;;;5.90;99.90;;;;;;5121406;28;20286;-79
2022/11/08 08:18:13;;;;;;;0.82;0.82;;;6.00;99.90;;;;;;5121821;28;20233;-79
2022/11/08 08:20:43;;;;;;;0.60;0.60;;;6.00;99.90;;;;;;5121191;27;21246;-80
2022/11/08 08:23:12;;;;;;;0.70;0.70;;;6.00;99.90;;;;;;5119651;28;20259;-80
2022/11/08 08:25:38;;;;;;;0.40;0.40;;;6.00;99.90;;;;;;5107427;28;20207;-81
2022/11/08 08:28:08;;;;;;;0.90;0.90;;;6.00;99.90;;;;;;5102207;28;20210;-80
2022/11/08 08:30:34;;;;;;;0.52;0.52;;;6.00;99.90;;;;;;5104006;28;20631;-79
2022/11/08 08:33:03;;;;;;;0.70;0.70;;;6.00;99.90;;;;;;5101973;28;20195;-80
2022/11/08 08:35:29;;;;;;;0.52;0.52;;;6.00;99.90;;;;;;5100771;28;20195;-79
2022/11/08 08:37:59;;;;;;;0.50;0.50;;;6.10;99.90;;;;;;5120773;28;20724;-79
2022/11/08 08:40:28;;;;;;;0.50;0.50;;;6.10;99.90;;;;;;5121098;28;20192;-81
2022/11/08 08:42:55;;;;;;;0.70;0.70;;;6.10;99.90;;;;;;5121126;28;20192;-78
2022/11/08 08:45:45;;;;;;;0.60;0.60;;;6.10;99.90;;;;;;5101166;28;20358;-78
2022/11/08 08:48:34;;;;;;;2.47;0.80;;;6.20;99.90;;;;;;5102607;28;20653;-80
2022/11/08 08:51:09;;;;;;;0.57;0.57;;;6.10;99.90;;;;;;5099824;28;20288;-79
2022/11/08 08:53:40;;;;;;;0.50;0.50;;;6.10;99.90;;;;;;5100681;28;20268;-80
2022/11/08 08:56:27;;;;;;;0.60;0.60;;;6.10;99.90;;;;;;5118483;28;20184;-78
2022/11/08 08:59:31;;;;;;;0.50;0.50;;;6.00;99.90;;;;;;5101342;28;20194;-80
2022/11/08 09:01:59;;;;;;;0.60;0.60;;;6.10;99.90;;;;;;5108861;28;20234;-77
2022/11/08 09:04:40;;;;;;;0.55;0.55;;;6.00;99.90;;;;;;5099786;28;20206;-78
2022/11/08 09:07:12;;;;;;;0.60;0.60;;;6.00;99.90;;;;;;5117999;28;20226;-80
2022/11/08 09:09:40;;;;;;;0.70;0.70;;;6.00;99.90;;;;;;5117788;28;20200;-81
2022/11/08 09:12:51;;;;;;;;;;;;;;;;;;;;;
2022/11/08 09:15:23;;;;;;;0.70;0.70;;;5.90;99.90;;;;;;5069425;28;20212;-79
2022/11/08 09:17:58;;;;;;;0.70;0.70;;;5.90;99.90;;;;;;5097472;28;20192;-81
2022/11/08 09:20:25;;;;;;;0.50;0.50;;;5.90;99.90;;;;;;5096747;28;20253;-81
2022/11/08 09:23:42;;;;;;;0.70;0.70;;;5.90;99.90;;;;;;5079584;28;20192;-79
2022/11/08 09:26:15;;;;;;;0.60;0.60;;;5.90;99.90;;;;;;5016444;28;20209;-80
2022/11/08 09:28:52;;;;;;;;;;;;;;;;;;;;;
2022/11/08 09:31:30;;;;;;;0.50;0.50;;;5.90;99.90;;;;;;5086537;28;20691;-80
2022/11/08 09:33:58;;;;;;;0.60;0.60;;;5.90;99.90;;;;;;5118154;28;20192;-80
2022/11/08 09:40:49;;;;;;;;;;;;;;;;;;;;;
2022/11/08 09:47:15;;;;;;;0.60;0.60;;;6.10;99.90;;;;;;4955640;28;20232;-80
2022/11/08 09:56:54;;;;;;;0.60;0.60;;;6.20;99.90;;;;;;4950273;28;20213;-80
2022/11/08 09:59:41;;;;;;;0.55;0.55;;;6.20;99.90;;;;;;5033540;28;20292;-80
2022/11/08 10:02:35;;;;;;;0.70;0.70;;;6.20;99.90;;;;;;5016869;28;20294;-81
2022/11/08 10:05:15;;;;;;;0.50;0.50;;;6.20;99.90;;;;;;5029103;28;20214;-81
2022/11/08 10:08:00;;;;;;;0.70;0.70;;;6.20;99.90;;;;;;5035562;28;20205;-82
2022/11/08 10:10:54;;;;;;;0.57;0.57;;;6.20;99.90;;;;;;5030449;28;20206;-77
2022/11/08 10:13:40;;;;;;;0.50;0.50;;;6.20;99.90;;;;;;5032939;28;20280;-79
2022/11/08 10:16:15;;;;;;;0.60;0.60;;;6.30;99.90;;;;;;5016574;28;20284;-78
2022/11/08 10:19:19;;;;;;;0.60;0.60;;;6.30;99.90;;;;;;5017651;28;20197;-81
2022/11/08 10:21:53;;;;;;;0.60;0.60;;;6.30;99.90;;;;;;4994397;28;20294;-80
2022/11/08 10:24:53;;;;;;;0.45;0.45;;;6.30;99.90;;;;;;4997475;28;20244;-80
2022/11/08 10:31:01;;;;;;;0.60;0.60;;;6.30;99.90;;;;;;4945336;28;20280;-80
2022/11/08 10:37:43;;;;;;;0.50;0.50;;;6.30;99.90;;;;;;4994010;28;20226;-81
2022/11/08 10:41:12;;;;;;;0.50;0.50;;;6.40;99.90;;;;;;4957440;28;20215;-80
2022/11/08 10:44:14;;;;;;;;;;;;;;;;;;;;;
2022/11/08 10:46:43;;;;;;;0.50;0.50;;;6.40;99.90;;;;;;4969112;28;20215;-79
2022/11/08 10:49:11;;;;;;;0.40;0.40;;;6.30;99.90;;;;;;4973706;28;20283;-80
2022/11/08 10:51:37;;;;;;;0.60;0.60;;;6.40;99.90;;;;;;4991605;28;20735;-79
2022/11/08 10:54:05;;;;;;;0.70;0.70;;;6.40;99.90;;;;;;4975328;28;20223;-79
2022/11/08 10:56:58;;;;;;;;;;;;;;;;;;;;;
2022/11/08 11:00:29;;;;;;;;;;;;;;;;;;;;;
2022/11/08 11:03:36;;;;;;;0.70;0.70;;;6.40;99.90;;;;;;4973255;28;20388;-82
2022/11/08 11:21:13;;;;;;;0.20;0.20;;;6.50;99.90;;;;;;4844546;29;20220;-80
2022/11/08 11:27:58;;;;;;;;;;;;;;;;;;;;;
2022/11/08 11:38:20;;;;;;;0.68;0.52;;;6.60;99.90;;;;;;4824959;29;20214;-80
2022/11/08 11:44:58;;;;;;;;;;;;;;;;;;;;;
2022/11/08 11:51:51;;;;;;;0.20;0.20;;;6.50;99.90;;;;;;4833783;29;20280;-80
2022/11/08 11:55:22;;;;;;;0.20;0.20;;;6.60;99.90;;;;;;4824430;29;20241;-80
2022/11/08 11:58:21;;;;;;;0.30;0.30;;;6.60;99.90;;;;;;4831260;29;20212;-80
2022/11/08 12:01:05;;;;;;;0.20;0.20;;;6.60;99.90;;;;;;4857854;29;20768;-80
2022/11/08 12:03:58;;;;;;;0.20;0.20;;;6.70;99.90;;;;;;4878663;29;20274;-80
2022/11/08 12:07:04;;;;;;;0.28;0.28;;;6.70;99.90;;;;;;4879356;29;20202;-79
2022/11/08 12:10:25;;;;;;;0.20;0.20;;;6.70;99.90;;;;;;4888870;29;20293;-78
2022/11/08 12:13:32;;;;;;;0.30;0.30;;;6.70;99.90;;;;;;4936472;29;20657;-79
2022/11/08 12:16:56;;;;;;;;;;;;;;;;;;;;;
2022/11/08 12:22:38;;;;;;;0.20;0.20;;;6.80;99.90;;;;;;5085740;28;20341;-80
2022/11/08 12:32:52;;;;;;;0.10;0.10;;;6.80;99.90;;;;;;5015815;28;20291;-79
2022/11/08 12:35:57;;;;;;;0.20;0.20;;;6.80;99.90;;;;;;5097691;28;20226;-80
2022/11/08 12:39:20;;;;;;;;;;;;;;;;;;;;;
2022/11/08 12:42:49;;;;;;;;;;;;;;;;;;;;;
2022/11/08 12:46:03;;;;;;;0.20;0.20;;;6.90;99.90;;;;;;4934712;29;20292;-79
2022/11/08 12:49:16;;;;;;;0.20;0.20;;;7.00;99.90;;;;;;4921001;29;20257;-80
2022/11/08 12:54:59;;;;;;;0.10;0.10;;;7.00;99.90;;;;;;4862934;29;20298;-80
2022/11/08 12:57:35;;;;;;;0.10;0.10;;;7.00;99.90;;;;;;4862927;29;20812;-79
2022/11/08 13:07:52;;;;;;;0.35;0.35;;;7.00;99.90;;;;;;4918494;29;20266;-79
2022/11/08 13:13:53;;;;;;;0.32;0.32;;;7.10;99.90;;;;;;4899639;29;20221;-79
2022/11/08 13:17:25;;;;;;;7.85;1.40;;;7.10;99.90;;;;;;4899040;29;20198;-78
2022/11/08 13:23:34;;;;;;;0.43;0.43;;;7.10;99.90;;;;;;4878380;29;20240;-78
2022/11/08 13:26:26;;;;;;;0.30;0.30;;;7.10;99.90;;;;;;4909678;29;20409;-78
2022/11/08 13:29:11;;;;;;;0.20;0.20;;;7.20;99.90;;;;;;4921558;29;20199;-78
2022/11/08 13:31:55;;;;;;;0.77;0.77;;;7.10;99.90;;;;;;4941901;28;20231;-77
2022/11/08 13:34:52;;;;;;;0.40;0.40;;;7.10;99.90;;;;;;4979162;28;20203;-78
2022/11/08 13:37:55;;;;;;;0.30;0.30;;;7.20;99.90;;;;;;4962759;28;20228;-78
2022/11/08 13:40:53;;;;;;;0.30;0.30;;;7.20;99.90;;;;;;4962401;28;20200;-78
2022/11/08 13:43:35;;;;;;;0.47;0.40;;;7.20;99.90;;;;;;4963185;28;20674;-77
2022/11/08 13:46:19;;;;;;;0.20;0.20;;;7.20;99.90;;;;;;4979261;28;20208;-77
2022/11/08 13:49:23;;;;;;;0.20;0.20;;;7.20;99.90;;;;;;4978025;28;20581;-78
2022/11/08 13:52:11;;;;;;;0.20;0.20;;;7.30;99.90;;;;;;4993758;28;20318;-78
2022/11/08 13:54:50;;;;;;;0.28;0.28;;;7.30;99.90;;;;;;5018926;28;20226;-77
2022/11/08 13:57:39;;;;;;;0.20;0.20;;;7.30;99.90;;;;;;5092739;28;20594;-78
2022/11/08 14:00:28;;;;;;;0.20;0.20;;;7.30;99.90;;;;;;5098189;28;20192;-78
2022/11/08 14:02:57;;;;;;;0.20;0.20;;;7.30;99.90;;;;;;5099296;28;20621;-78
2022/11/08 14:05:48;;;;;;;0.20;0.20;;;7.40;99.90;;;;;;5098917;28;20204;-78
2022/11/08 14:08:27;;;;;;;0.40;0.40;;;7.40;99.90;;;;;;5098447;28;20192;-77
2022/11/08 14:11:19;;;;;;;0.30;0.30;;;7.40;99.90;;;;;;5098631;28;20555;-77
2022/11/08 14:14:46;;;;;;;0.20;0.20;;;7.40;99.90;;;;;;5086471;28;20680;-77
2022/11/08 14:17:56;;;;;;;0.30;0.30;;;7.50;99.90;;;;;;4997391;28;20203;-77
2022/11/08 14:20:44;;;;;;;0.20;0.20;;;7.50;99.90;;;;;;4985063;28;20211;-76
2022/11/08 14:23:32;;;;;;;0.30;0.30;;;7.50;99.90;;;;;;4999998;28;20709;-77
2022/11/08 14:26:36;;;;;;;0.20;0.20;;;7.50;99.90;;;;;;5000117;28;20649;-78
2022/11/08 14:29:07;;;;;;;0.68;0.68;;;7.50;99.90;;;;;;4999343;28;20260;-77
2022/11/08 14:31:36;;;;;;;0.20;0.20;;;7.50;99.90;;;;;;4999593;28;20230;-77
2022/11/08 14:34:05;;;;;;;0.28;0.28;;;7.50;99.90;;;;;;5016350;28;20211;-78
2022/11/08 14:36:37;;;;;;;1.27;1.13;;;7.50;99.90;;;;;;5015726;28;20572;-77
2022/11/08 14:39:17;;;;;;;0.20;0.20;;;7.50;99.90;;;;;;4999107;28;20692;-77
2022/11/08 14:41:52;;;;;;;0.38;0.38;;;7.50;99.90;;;;;;4997546;28;20210;-77
2022/11/08 14:44:18;;;;;;;0.30;0.30;;;7.50;99.90;;;;;;4997424;28;20233;-77
2022/11/08 14:46:47;;;;;;;0.20;0.20;;;7.50;99.90;;;;;;5014007;28;20234;-77
2022/11/08 14:49:13;;;;;;;0.30;0.30;;;7.50;99.90;;;;;;5014764;28;20194;-76
2022/11/08 14:52:00;;;;;;;0.20;0.20;;;7.50;99.90;;;;;;5012314;28;20261;-76
2022/11/08 14:54:35;;;;;;;0.17;0.17;;;7.50;99.90;;;;;;5057195;28;20246;-76
2022/11/08 14:57:03;;;;;;;0.20;0.20;;;7.50;99.90;;;;;;5076656;28;20196;-76
2022/11/08 14:59:47;;;;;;;0.30;0.30;;;7.50;99.90;;;;;;5076437;28;20220;-77
2022/11/08 15:02:19;;;;;;;0.40;0.40;;;7.50;99.90;;;;;;5058093;28;20207;-77
2022/11/08 15:04:44;;;;;;;1.08;0.95;;;7.50;99.90;;;;;;5075886;28;20213;-77
2022/11/08 15:07:10;;;;;;;0.20;0.20;;;7.50;99.90;;;;;;5058381;28;20277;-78
2022/11/08 15:09:39;;;;;;;0.20;0.20;;;7.50;99.90;;;;;;5057229;28;20213;-78
2022/11/08 15:12:12;;;;;;;0.30;0.30;;;7.50;99.90;;;;;;5057434;28;20208;-77
2022/11/08 15:14:50;;;;;;;1.02;0.93;;;7.60;99.90;;;;;;5057525;28;20735;-78
2022/11/08 15:17:38;;;;;;;0.55;0.55;;;7.60;99.90;;;;;;5057677;28;20224;-77
2022/11/08 15:20:17;;;;;;;0.22;0.22;;;7.60;99.90;;;;;;5074133;28;20208;-77
2022/11/08 15:22:46;;;;;;;1.13;0.60;;;7.60;99.90;;;;;;5075609;28;20678;-78
2022/11/08 15:25:18;;;;;;;0.30;0.30;;;7.60;99.90;;;;;;5074332;28;20201;-78
2022/11/08 15:27:56;;;;;;;0.82;0.82;;;7.60;99.90;;;;;;5057595;28;20224;-78
2022/11/08 15:30:34;;;;;;;0.45;0.45;;;7.60;99.90;;;;;;5057722;28;20674;-78
2022/11/08 15:33:02;;;;;;;0.70;0.70;;;7.60;99.90;;;;;;5075633;28;20220;-77
2022/11/08 15:35:35;;;;;;;4.57;1.38;;;7.60;99.90;;;;;;5075614;28;20264;-78
2022/11/08 15:38:24;;;;;;;3.20;1.83;;;7.60;99.90;;;;;;5058002;28;20289;-77
2022/11/08 15:41:01;;;;;;;0.45;0.43;;;7.60;99.90;;;;;;5058796;28;20660;-78
2022/11/08 15:43:32;;;;;;;0.82;0.82;;;7.70;99.90;;;;;;5075878;28;20212;-77
2022/11/08 15:46:03;;;;;;;0.30;0.30;;;7.70;99.90;;;;;;5076162;28;20193;-78
2022/11/08 15:48:38;;;;;;;0.63;0.63;;;7.70;99.90;;;;;;5069936;28;20228;-78
2022/11/08 15:51:06;;;;;;;0.73;0.73;;;7.70;99.90;;;;;;5105231;28;20225;-78
2022/11/08 15:53:35;;;;;;;0.57;0.57;;;7.80;99.90;;;;;;5097651;28;20610;-78